Airfield :
LOGIN :

Register | Disclaimer

   EN    FR    IT 

 










Legend :    VFR   Marginal VFR   IFR   Intensive IFR   Very Intensive IFR
Visi :
Ceiling :
>= 8 km
>= 3000ft
5 to 8 km
1000 to 3000 ft
1500m to 5 km
500 to 1000 ft
800 to 1500m
200 to 500 ft
< 800m
< 200 ft
Symbols :   Thunderstorms  Fog  Heavy snow  Heavy precipitations  Wind > 20 kt
SIGMETs :     Misc.  Thunderstorms  Icing  Turbulence  Mountain Waves  Volcanic Ashes







- Airport Elevation : 13 ft
- IATA code : OST


EBOS - Oostend bruges Int.

CURRENT METAR :
  • 181520Z 23019KT 9999 FEW032 20/13 Q1014 TEMPO 23020G30KT

EXPIRED METARs :
  • 181450Z 23020KT 9999 FEW035 22/13 Q1013 TEMPO 23020G30KT
  • 181420Z 22022KT 9999 FEW035 22/12 Q1013 TEMPO 23022G32KT
  • 181350Z 23022KT 9999 FEW035 22/12 Q1013 TEMPO 23022G32KT
  • 181320Z 23020KT 9999 FEW035 22/13 Q1013 TEMPO 23022G32KT
  • 181250Z 23022KT 9999 FEW030 23/14 Q1013 TEMPO 23022G32KT

TAF TAF EBOS
Valid from the 18 at 12:00 until the 19 at 18:00 UTC


181110Z 1812/1918 23018KT 9999 BKN030
TEMPO 1812/1816 23020G30KT
TEMPO 1913/1918 22015G25KT
No reported NOTAMs for that airfield.



MET'MAP, your aeronautical weather chart ! - Copyright ORBIFLY December 2007 - Disclaimer

ORBIFLY MET'MAP TEAM :

Programming & Development : Alexandra Zaïnal
Concept & Development : Baudouin d'Aumeries
Co-Development & Prog : Marc-Olivier Méhu
Technical & hardware support : Manuel Goepfert

Contact : metmap@orbifly.com




SOURCES & CREDITS :

   NOAA